Flight Track Log - Related Links

Times and Time Zones

All times are in EDT time to prevent confusion due to time zone crossing. See the DAL1562 flight status page for this flight to view local times or setup timezone preferences in your user account.

Time Position Orientation Groundspeed Altitude Reporting Facility
EDT Latitude Longitude Course Direction KTS MPH feet Rate Location/Type
Thu 11:25:13 AM 44.8947 -93.3022 120° Southeast 197 227 3,200  Level Minneapolis Center
Thu 11:26:00 AM 44.5562 -92.9128 120° Southeast  Level Estimated
Thu 11:26:15 AM 44.8467 -93.3717 226° Southwest 274 315 5,700  Level Minneapolis Center
Thu 11:27:00 AM 44.4850 -92.7587 123° Southeast  Level FlightAware Approximate
Thu 11:27:17 AM 44.7794 -93.3203 152° Southeast 298 343 8,500  Level Minneapolis Center
Thu 11:28:00 AM 44.3758 -92.6575 121° Southeast  Level Estimated
Thu 11:28:19 AM 44.7158 -93.2033 127° Southeast 315 362 11,200  Level Minneapolis Center
Thu 11:29:00 AM 44.3192 -92.4924 116° Southeast  Level FlightAware Approximate
Thu 11:29:21 AM 44.6589 -93.0947 126° Southeast 373 429 12,700  Level Minneapolis Center
Thu 11:30:00 AM 44.2094 -92.3929 120° Southeast  Level Estimated
Thu 11:30:23 AM 44.5939 -92.9708 126° Southeast 393 452 15,100  Level Minneapolis Center
Thu 11:31:25 AM 44.5261 -92.8442 127° Southeast 406 467 17,200 1,935 Climbing Minneapolis Center
Thu 11:32:27 AM 44.4431 -92.6886 127° Southeast 415 478 19,100 1,742 Climbing Minneapolis Center
Thu 11:33:29 AM 44.3822 -92.5433 120° Southeast 428 493 20,800 1,512 Climbing Minneapolis Center
Thu 11:34:30 AM 44.3178 -92.3969 122° Southeast 440 506 22,200 1,317 Climbing Minneapolis Center
Thu 11:35:32 AM 44.2525 -92.2472 121° Southeast 451 519 23,500 1,210 Climbing Minneapolis Center
Thu 11:36:34 AM 44.1867 -92.0939 121° Southeast 460 529 24,700 968 Climbing Minneapolis Center
Thu 11:37:36 AM 44.1186 -91.9383 121° Southeast 468 539 25,500 1,016 Climbing Minneapolis Center
Thu 11:38:38 AM 44.0350 -91.7461 121° Southeast 483 556 26,800 1,258 Climbing Minneapolis Center
Thu 11:39:40 AM 43.9633 -91.5831 121° Southeast 486 559 28,100 1,161 Climbing Minneapolis Center
Thu 11:40:42 AM 43.8864 -91.4308 125° Southeast 484 557 29,200 919 Climbing Minneapolis Center
Thu 11:41:44 AM 43.7897 -91.2964 135° Southeast 491 565 30,000 726 Climbing Minneapolis Center
Thu 11:42:46 AM 43.6933 -91.1611 135° Southeast 494 568 30,700 577 Climbing Minneapolis Center
Thu 11:43:28 AM 43.6139 -91.0542 136° Southeast 498 573 31,000 173 Climbing Chicago Center
Thu 11:44:30 AM 43.5147 -90.9178 135° Southeast 503 579 31,000  Level Chicago Center
Thu 11:45:32 AM 43.4167 -90.7836 135° Southeast 500 575 31,000  Level Chicago Center
Thu 11:46:34 AM 43.3189 -90.6481 135° Southeast 501 577 31,000  Level Chicago Center
Thu 11:47:36 AM 43.2203 -90.5139 135° Southeast 500 575 31,000  Level Chicago Center
Thu 11:48:38 AM 43.1228 -90.3803 135° Southeast 499 574 31,000  Level Chicago Center
Thu 11:49:40 AM 43.0219 -90.2444 135° Southeast 506 582 31,000  Level Chicago Center
Thu 11:50:42 AM 42.9036 -90.0842 135° Southeast 502 578 31,000  Level Chicago Center
Thu 11:51:43 AM 42.7978 -89.9597 139° Southeast 504 580 31,000  Level Chicago Center
Thu 11:52:45 AM 42.6667 -89.9156 166° South 492 566 31,000  Level Chicago Center
Thu 11:53:47 AM 42.5264 -89.8833 170° South 489 563 31,000  Level Chicago Center
Thu 11:54:49 AM 42.3931 -89.8392 166° South 496 571 31,000  Level Chicago Center
Thu 11:55:51 AM 42.2625 -89.7797 161° South 498 573 31,000  Level Chicago Center
Thu 11:56:53 AM 42.1036 -89.7097 162° South 501 577 31,000  Level Chicago Center
Thu 11:57:55 AM 41.9858 -89.6689 166° South 502 578 31,000  Level Chicago Center
Thu 11:58:57 AM 41.8242 -89.6169 167° South 501 577 31,000  Level Chicago Center
Thu 11:59:59 AM 41.6950 -89.5758 167° South 501 577 31,000  Level Chicago Center
Thu 12:01:01 PM 41.5550 -89.5308 166° South 500 575 31,000  Level Chicago Center
Thu 12:02:03 PM 41.4236 -89.4872 166° South 501 577 31,000  Level Chicago Center
Thu 12:03:05 PM 41.2869 -89.4431 166° South 502 578 31,000  Level Chicago Center
Thu 12:04:07 PM 41.1481 -89.4003 167° South 507 583 31,000  Level Chicago Center
Thu 12:05:09 PM 40.9828 -89.3475 166° South 507 583 31,000  Level Chicago Center
Thu 12:06:11 PM 40.8419 -89.3028 166° South 511 588 31,000  Level Chicago Center
Thu 12:07:13 PM 40.7008 -89.2586 167° South 514 592 31,000  Level Chicago Center
Thu 12:08:15 PM 40.5614 -89.2156 167° South 512 589 31,000  Level Chicago Center
Thu 12:09:17 PM 40.4219 -89.1722 167° South 511 588 31,000  Level Chicago Center
Thu 12:10:19 PM 40.2806 -89.1281 167° South 517 595 31,000  Level Chicago Center
Thu 12:12:23 PM 40.0000 -89.0422 167° South 516 594 31,000  Level Chicago Center
Thu 12:13:25 PM 39.8336 -88.9931 167° South 510 587 31,000  Level Chicago Center
Thu 12:14:27 PM 39.6950 -88.9511 167° South 510 587 31,000  Level Chicago Center
Thu 12:15:29 PM 39.5578 -88.9108 167° South 507 583 31,000  Level Chicago Center
Thu 12:16:31 PM 39.4197 -88.8522 162° South 523 602 31,000  Level Chicago Center
Thu 12:17:13 PM 39.3164 -88.7842 153° Southeast 532 612 31,000  Level Indianapolis Center
Thu 12:17:47 PM 39.2456 -88.7322 150° Southeast 531 611 31,000  Level Kansas City Center
Thu 12:18:49 PM 39.1122 -88.6392 152° Southeast 540 621 31,000  Level Kansas City Center
Thu 12:19:51 PM 38.9736 -88.5425 152° Southeast 537 618 31,000  Level Kansas City Center
Thu 12:20:53 PM 38.8414 -88.4536 152° Southeast 536 617 31,000  Level Kansas City Center
Thu 12:21:55 PM 38.7103 -88.3633 152° Southeast 535 616 31,000  Level Kansas City Center
Thu 12:22:57 PM 38.5794 -88.2756 152° Southeast 532 612 31,000  Level Kansas City Center
Thu 12:23:59 PM 38.4478 -88.1889 153° Southeast 532 612 31,000  Level Kansas City Center
Thu 12:25:01 PM 38.2936 -88.0856 152° Southeast 527 606 31,000  Level Kansas City Center
Thu 12:26:03 PM 38.1653 -87.9997 152° Southeast 525 604 31,000  Level Kansas City Center
Thu 12:27:05 PM 38.0367 -87.9122 152° Southeast 525 604 31,000  Level Kansas City Center
Thu 12:28:07 PM 37.9078 -87.8275 153° Southeast 524 603 31,000  Level Kansas City Center
Thu 12:29:35 PM 37.7094 -87.6950 152° Southeast 520 598 31,000  Level Indianapolis Center
Thu 12:30:36 PM 37.5806 -87.6103 152° Southeast 519 597 31,000  Level Indianapolis Center
Thu 12:31:38 PM 37.4533 -87.5311 154° Southeast 507 583 31,000  Level Indianapolis Center
Thu 12:32:40 PM 37.3258 -87.4467 152° Southeast 511 588 31,000  Level Indianapolis Center
Thu 12:33:42 PM 37.1975 -87.3639 153° Southeast 513 590 31,000  Level Indianapolis Center
Thu 12:34:34 PM 37.0919 -87.2908 151° Southeast 521 600 31,000  Level Memphis Center
Thu 12:35:34 PM 36.9669 -87.2100 153° Southeast 514 592 31,000  Level Memphis Center
Thu 12:36:34 PM 36.8292 -87.1247 154° Southeast 514 592 31,000  Level Memphis Center
Thu 12:37:34 PM 36.7019 -87.0417 152° Southeast 514 592 31,000  Level Memphis Center
Thu 12:38:34 PM 36.5769 -86.9617 153° Southeast 509 586 31,000  Level Memphis Center
Thu 12:39:34 PM 36.4539 -86.8817 152° Southeast 502 578 31,000  Level Memphis Center
Thu 12:40:34 PM 36.3222 -86.7972 153° Southeast 514 592 31,000  Level Memphis Center
Thu 12:41:34 PM 36.2053 -86.7253 154° Southeast 521 600 31,000  Level Memphis Center
Thu 12:42:34 PM 36.0861 -86.6406 150° Southeast 514 592 31,000  Level Memphis Center
Thu 12:43:34 PM 35.9686 -86.5458 147° Southeast 514 592 31,000  Level Memphis Center
Thu 12:44:34 PM 35.8508 -86.4489 146° Southeast 509 586 31,000  Level Memphis Center
Thu 12:46:08 PM 35.6744 -86.3064 147° Southeast 516 594 31,000  Level Atlanta Center
Thu 12:47:08 PM 35.5592 -86.2139 147° Southeast 511 588 31,000  Level Atlanta Center
Thu 12:48:08 PM 35.4419 -86.1214 147° Southeast 500 575 31,000  Level Atlanta Center
Thu 12:49:08 PM 35.3267 -86.0294 147° Southeast 493 567 31,000  Level Atlanta Center
Thu 12:50:08 PM 35.2011 -85.9272 146° Southeast 499 574 31,000 -500 Level Atlanta Center
Thu 12:51:08 PM 35.0856 -85.8383 148° Southeast 494 568 30,000 -1,050 Descending Atlanta Center
Thu 12:52:08 PM 34.9700 -85.7472 147° Southeast 494 568 28,900 -1,300 Descending Atlanta Center
Thu 12:53:08 PM 34.8542 -85.6561 147° Southeast 494 568 27,400 -1,250 Descending Atlanta Center
Thu 12:54:08 PM 34.7386 -85.5656 147° Southeast 494 568 26,400 -950 Descending Atlanta Center
Thu 12:55:08 PM 34.6250 -85.4775 147° Southeast 494 568 25,500 -1,750 Descending Atlanta Center
Thu 12:56:08 PM 34.5153 -85.3900 147° Southeast 489 563 22,900 -2,600 Descending Atlanta Center
Thu 12:57:08 PM 34.4075 -85.3078 148° Southeast 483 556 20,300 -2,500 Descending Atlanta Center
Thu 12:58:08 PM 34.3042 -85.2258 147° Southeast 453 521 17,900 -2,250 Descending Atlanta Center
Thu 12:59:08 PM 34.2025 -85.1464 147° Southeast 445 512 15,800 -1,850 Descending Atlanta Center
Thu 01:00:08 PM 34.1239 -85.0650 139° Southeast 431 496 14,200 -1,100 Descending Atlanta Center
Thu 01:01:08 PM 34.0414 -84.9589 133° Southeast 421 484 13,600 -950 Descending Atlanta Center
Thu 01:02:08 PM 33.9606 -84.8578 134° Southeast 421 484 12,300 -850 Descending Atlanta Center
Thu 01:03:08 PM 33.8819 -84.7619 135° Southeast 416 479 11,900 -255 Descending Atlanta Center
Thu 01:03:42 PM 33.8333 -84.7000 133° Southeast 370 426 11,900  Level Atlanta TRACON
Thu 01:04:36 PM 33.7667 -84.6333 140° Southeast 309 356 11,900  Level Atlanta TRACON
Thu 01:05:36 PM 33.7333 -84.5500 116° Southeast 310 357 11,900 -868 Level Atlanta TRACON
Thu 01:07:08 PM 33.7331 -84.4086 90° East 285 328 9,700 -1,667 Descending Atlanta Center
Thu 01:07:42 PM 33.7333 -84.3500 90° East 296 341 8,400 -2,043 Descending Atlanta TRACON
Thu 01:08:42 PM 33.7333 -84.2500 90° East 267 307 6,500 -2,053 Descending Atlanta TRACON
Thu 01:09:36 PM 33.6833 -84.2000 140° Southeast 247 284 4,500 -1,900 Descending Atlanta TRACON
Thu 01:10:42 PM 33.6500 -84.2667 239° Southwest 188 216 2,700 -1,000 Descending Atlanta TRACON
Thu 01:11:36 PM 33.6500 -84.3167 270° West 182 209 2,500 -526 Descending Atlanta TRACON
Thu 01:12:36 PM 33.6500 -84.3667 270° West 152 175 1,700 -800 Descending Atlanta TRACON

Login

Don't have an account? Register now (free) for customized features, flight alerts, and more!